sensor_id;sensor_type;location;lat;lon;timestamp;P1;P2;P0
69224;PMS1003;56333;51.306;17.056;2023-06-22T00:00:05;16.80;15.10;
69224;PMS1003;56333;51.306;17.056;2023-06-22T00:01:58;16.50;14.90;
69224;PMS1003;56333;51.306;17.056;2023-06-22T00:03:27;15.80;14.30;
69224;PMS1003;56333;51.306;17.056;2023-06-22T00:04:55;15.80;14.10;
69224;PMS1003;56333;51.306;17.056;2023-06-22T00:06:24;15.40;13.90;
69224;PMS1003;56333;51.306;17.056;2023-06-22T00:07:52;15.60;14.10;
69224;PMS1003;56333;51.306;17.056;2023-06-22T00:09:21;16.40;14.80;
69224;PMS1003;56333;51.306;17.056;2023-06-22T00:10:50;16.80;15.20;
69224;PMS1003;56333;51.306;17.056;2023-06-22T00:12:18;17.10;15.50;
69224;PMS1003;56333;51.306;17.056;2023-06-22T00:13:47;17.10;15.50;
69224;PMS1003;56333;51.306;17.056;2023-06-22T00:15:17;16.80;15.20;
69224;PMS1003;56333;51.306;17.056;2023-06-22T00:16:46;16.90;15.20;
69224;PMS1003;56333;51.306;17.056;2023-06-22T00:18:15;16.50;14.90;
69224;PMS1003;56333;51.306;17.056;2023-06-22T00:19:46;16.10;14.60;
69224;PMS1003;56333;51.306;17.056;2023-06-22T00:21:19;16.30;14.60;
69224;PMS1003;56333;51.306;17.056;2023-06-22T00:22:47;16.30;14.60;
69224;PMS1003;56333;51.306;17.056;2023-06-22T00:24:16;16.60;15.00;
69224;PMS1003;56333;51.306;17.056;2023-06-22T00:25:46;16.70;15.00;
69224;PMS1003;56333;51.306;17.056;2023-06-22T00:27:15;17.70;16.10;
69224;PMS1003;56333;51.306;17.056;2023-06-22T00:28:43;17.50;15.80;
69224;PMS1003;56333;51.306;17.056;2023-06-22T00:30:14;16.50;14.80;
69224;PMS1003;56333;51.306;17.056;2023-06-22T00:31:43;16.20;14.60;
69224;PMS1003;56333;51.306;17.056;2023-06-22T00:33:12;16.40;14.90;
69224;PMS1003;56333;51.306;17.056;2023-06-22T00:34:42;17.30;15.60;
69224;PMS1003;56333;51.306;17.056;2023-06-22T00:36:10;16.60;15.00;
69224;PMS1003;56333;51.306;17.056;2023-06-22T00:37:41;16.10;14.70;
69224;PMS1003;56333;51.306;17.056;2023-06-22T00:39:10;16.80;15.20;
69224;PMS1003;56333;51.306;17.056;2023-06-22T00:40:39;17.60;15.90;
69224;PMS1003;56333;51.306;17.056;2023-06-22T00:42:08;17.40;15.80;
69224;PMS1003;56333;51.306;17.056;2023-06-22T00:43:36;17.60;15.90;
69224;PMS1003;56333;51.306;17.056;2023-06-22T00:46:36;17.30;15.60;
69224;PMS1003;56333;51.306;17.056;2023-06-22T00:48:06;16.60;15.10;
69224;PMS1003;56333;51.306;17.056;2023-06-22T00:49:36;17.70;15.90;
69224;PMS1003;56333;51.306;17.056;2023-06-22T00:51:05;17.40;15.60;
69224;PMS1003;56333;51.306;17.056;2023-06-22T00:52:34;17.60;15.80;
69224;PMS1003;56333;51.306;17.056;2023-06-22T00:54:03;18.00;16.20;
69224;PMS1003;56333;51.306;17.056;2023-06-22T00:55:32;18.00;16.40;
69224;PMS1003;56333;51.306;17.056;2023-06-22T00:57:03;17.70;15.80;
69224;PMS1003;56333;51.306;17.056;2023-06-22T00:58:38;17.60;15.80;
69224;PMS1003;56333;51.306;17.056;2023-06-22T01:00:11;17.30;15.60;
69224;PMS1003;56333;51.306;17.056;2023-06-22T01:01:46;17.60;15.90;
69224;PMS1003;56333;51.306;17.056;2023-06-22T01:03:14;17.30;15.50;
69224;PMS1003;56333;51.306;17.056;2023-06-22T01:04:43;17.20;15.50;
69224;PMS1003;56333;51.306;17.056;2023-06-22T01:06:19;18.10;16.30;
69224;PMS1003;56333;51.306;17.056;2023-06-22T01:08:04;18.20;16.60;
69224;PMS1003;56333;51.306;17.056;2023-06-22T01:09:45;18.30;16.40;
69224;PMS1003;56333;51.306;17.056;2023-06-22T01:11:23;18.30;16.50;
69224;PMS1003;56333;51.306;17.056;2023-06-22T01:13:01;18.20;16.40;
69224;PMS1003;56333;51.306;17.056;2023-06-22T01:14:43;17.80;16.10;
69224;PMS1003;56333;51.306;17.056;2023-06-22T01:16:23;17.80;16.00;
69224;PMS1003;56333;51.306;17.056;2023-06-22T01:17:53;18.10;16.30;
69224;PMS1003;56333;51.306;17.056;2023-06-22T01:19:37;17.60;15.90;
69224;PMS1003;56333;51.306;17.056;2023-06-22T01:21:14;17.80;16.10;
69224;PMS1003;56333;51.306;17.056;2023-06-22T01:23:02;17.60;15.90;
69224;PMS1003;56333;51.306;17.056;2023-06-22T01:24:44;18.10;16.30;
69224;PMS1003;56333;51.306;17.056;2023-06-22T01:26:24;17.80;16.10;
69224;PMS1003;56333;51.306;17.056;2023-06-22T01:28:10;17.90;16.20;
69224;PMS1003;56333;51.306;17.056;2023-06-22T01:29:51;19.20;16.80;
69224;PMS1003;56333;51.306;17.056;2023-06-22T01:31:27;17.90;16.10;
69224;PMS1003;56333;51.306;17.056;2023-06-22T01:34:25;17.90;16.10;
69224;PMS1003;56333;51.306;17.056;2023-06-22T01:35:56;17.90;16.10;
69224;PMS1003;56333;51.306;17.056;2023-06-22T01:37:25;17.20;15.60;
69224;PMS1003;56333;51.306;17.056;2023-06-22T01:38:54;17.90;16.20;
69224;PMS1003;56333;51.306;17.056;2023-06-22T01:40:25;18.50;16.80;
69224;PMS1003;56333;51.306;17.056;2023-06-22T01:41:55;17.80;16.00;
69224;PMS1003;56333;51.306;17.056;2023-06-22T01:43:25;17.90;16.20;
69224;PMS1003;56333;51.306;17.056;2023-06-22T01:44:55;16.80;15.30;
69224;PMS1003;56333;51.306;17.056;2023-06-22T01:46:25;17.10;15.40;
69224;PMS1003;56333;51.306;17.056;2023-06-22T01:47:54;17.10;15.50;
69224;PMS1003;56333;51.306;17.056;2023-06-22T01:49:23;16.00;14.50;
69224;PMS1003;56333;51.306;17.056;2023-06-22T01:50:51;17.00;15.30;
69224;PMS1003;56333;51.306;17.056;2023-06-22T01:52:20;17.10;15.50;
69224;PMS1003;56333;51.306;17.056;2023-06-22T01:53:49;18.30;16.50;
69224;PMS1003;56333;51.306;17.056;2023-06-22T01:55:18;18.70;17.00;
69224;PMS1003;56333;51.306;17.056;2023-06-22T01:56:48;19.20;17.30;
69224;PMS1003;56333;51.306;17.056;2023-06-22T01:58:17;19.20;17.40;
69224;PMS1003;56333;51.306;17.056;2023-06-22T01:59:56;18.40;16.60;
69224;PMS1003;56333;51.306;17.056;2023-06-22T02:01:30;17.90;16.20;
69224;PMS1003;56333;51.306;17.056;2023-06-22T02:03:08;17.20;15.60;
69224;PMS1003;56333;51.306;17.056;2023-06-22T02:04:44;17.70;15.90;
69224;PMS1003;56333;51.306;17.056;2023-06-22T02:06:20;17.20;15.60;
69224;PMS1003;56333;51.306;17.056;2023-06-22T02:07:59;17.90;16.00;
69224;PMS1003;56333;51.306;17.056;2023-06-22T02:09:33;16.80;15.20;
69224;PMS1003;56333;51.306;17.056;2023-06-22T02:11:04;16.90;15.20;
69224;PMS1003;56333;51.306;17.056;2023-06-22T02:12:36;17.30;15.60;
69224;PMS1003;56333;51.306;17.056;2023-06-22T02:14:06;16.80;15.10;
69224;PMS1003;56333;51.306;17.056;2023-06-22T02:15:36;16.70;15.00;
69224;PMS1003;56333;51.306;17.056;2023-06-22T02:17:05;18.40;14.80;
69224;PMS1003;56333;51.306;17.056;2023-06-22T02:18:34;16.20;14.70;
69224;PMS1003;56333;51.306;17.056;2023-06-22T02:20:04;16.30;14.50;
69224;PMS1003;56333;51.306;17.056;2023-06-22T02:21:35;16.10;14.40;
69224;PMS1003;56333;51.306;17.056;2023-06-22T02:23:04;16.30;14.70;
69224;PMS1003;56333;51.306;17.056;2023-06-22T02:24:34;16.90;15.30;
69224;PMS1003;56333;51.306;17.056;2023-06-22T02:26:03;17.00;15.30;
69224;PMS1003;56333;51.306;17.056;2023-06-22T02:27:32;17.70;16.10;
69224;PMS1003;56333;51.306;17.056;2023-06-22T02:29:01;17.70;15.90;
69224;PMS1003;56333;51.306;17.056;2023-06-22T02:30:29;16.40;14.50;
69224;PMS1003;56333;51.306;17.056;2023-06-22T02:31:59;16.20;14.50;
69224;PMS1003;56333;51.306;17.056;2023-06-22T02:33:28;16.10;14.60;
69224;PMS1003;56333;51.306;17.056;2023-06-22T02:34:57;17.10;14.50;
69224;PMS1003;56333;51.306;17.056;2023-06-22T02:36:26;15.50;14.20;
69224;PMS1003;56333;51.306;17.056;2023-06-22T02:37:56;16.20;14.60;
69224;PMS1003;56333;51.306;17.056;2023-06-22T02:39:26;16.40;14.80;
69224;PMS1003;56333;51.306;17.056;2023-06-22T02:40:55;16.40;14.80;
69224;PMS1003;56333;51.306;17.056;2023-06-22T02:42:24;16.40;14.90;
69224;PMS1003;56333;51.306;17.056;2023-06-22T02:43:53;17.30;15.70;
69224;PMS1003;56333;51.306;17.056;2023-06-22T02:45:22;15.60;14.10;
69224;PMS1003;56333;51.306;17.056;2023-06-22T02:46:51;15.60;14.10;
69224;PMS1003;56333;51.306;17.056;2023-06-22T02:48:20;15.10;13.60;
69224;PMS1003;56333;51.306;17.056;2023-06-22T02:49:50;15.70;14.20;
69224;PMS1003;56333;51.306;17.056;2023-06-22T02:51:18;16.40;14.70;
69224;PMS1003;56333;51.306;17.056;2023-06-22T02:52:48;15.90;14.40;
69224;PMS1003;56333;51.306;17.056;2023-06-22T02:54:17;16.70;15.20;
69224;PMS1003;56333;51.306;17.056;2023-06-22T02:55:47;18.70;16.80;
69224;PMS1003;56333;51.306;17.056;2023-06-22T02:57:16;17.20;15.40;
69224;PMS1003;56333;51.306;17.056;2023-06-22T02:58:44;18.20;16.20;
69224;PMS1003;56333;51.306;17.056;2023-06-22T03:00:15;18.30;15.60;
69224;PMS1003;56333;51.306;17.056;2023-06-22T03:01:45;18.80;16.90;
69224;PMS1003;56333;51.306;17.056;2023-06-22T03:03:19;17.80;15.90;
69224;PMS1003;56333;51.306;17.056;2023-06-22T03:04:47;18.70;16.30;
69224;PMS1003;56333;51.306;17.056;2023-06-22T03:06:16;18.30;16.10;
69224;PMS1003;56333;51.306;17.056;2023-06-22T03:07:49;20.30;16.40;
69224;PMS1003;56333;51.306;17.056;2023-06-22T03:09:18;18.50;16.60;
69224;PMS1003;56333;51.306;17.056;2023-06-22T03:10:47;22.40;17.00;
69224;PMS1003;56333;51.306;17.056;2023-06-22T03:12:16;18.90;16.90;
69224;PMS1003;56333;51.306;17.056;2023-06-22T03:13:50;20.10;16.80;
69224;PMS1003;56333;51.306;17.056;2023-06-22T03:15:19;18.80;16.90;
69224;PMS1003;56333;51.306;17.056;2023-06-22T03:16:48;18.10;16.20;
69224;PMS1003;56333;51.306;17.056;2023-06-22T03:18:18;18.70;16.20;
69224;PMS1003;56333;51.306;17.056;2023-06-22T03:19:48;17.50;15.50;
69224;PMS1003;56333;51.306;17.056;2023-06-22T03:21:17;17.50;15.60;
69224;PMS1003;56333;51.306;17.056;2023-06-22T03:22:45;16.60;14.90;
69224;PMS1003;56333;51.306;17.056;2023-06-22T03:24:14;17.90;16.10;
69224;PMS1003;56333;51.306;17.056;2023-06-22T03:25:43;18.30;16.50;
69224;PMS1003;56333;51.306;17.056;2023-06-22T03:27:12;17.70;15.80;
69224;PMS1003;56333;51.306;17.056;2023-06-22T03:28:41;17.80;15.90;
69224;PMS1003;56333;51.306;17.056;2023-06-22T03:30:13;18.60;16.10;
69224;PMS1003;56333;51.306;17.056;2023-06-22T03:31:42;18.60;16.70;
69224;PMS1003;56333;51.306;17.056;2023-06-22T03:33:11;20.90;16.10;
69224;PMS1003;56333;51.306;17.056;2023-06-22T03:34:40;18.40;15.60;
69224;PMS1003;56333;51.306;17.056;2023-06-22T03:36:12;17.50;15.70;
69224;PMS1003;56333;51.306;17.056;2023-06-22T03:37:44;17.60;15.50;
69224;PMS1003;56333;51.306;17.056;2023-06-22T03:39:13;16.80;15.20;
69224;PMS1003;56333;51.306;17.056;2023-06-22T03:40:42;17.90;16.00;
69224;PMS1003;56333;51.306;17.056;2023-06-22T03:42:10;17.80;16.00;
69224;PMS1003;56333;51.306;17.056;2023-06-22T03:43:39;17.30;15.50;
69224;PMS1003;56333;51.306;17.056;2023-06-22T03:45:11;22.80;16.40;
69224;PMS1003;56333;51.306;17.056;2023-06-22T03:46:41;17.50;15.60;
69224;PMS1003;56333;51.306;17.056;2023-06-22T03:48:09;21.10;16.50;
69224;PMS1003;56333;51.306;17.056;2023-06-22T03:49:38;18.70;16.20;
69224;PMS1003;56333;51.306;17.056;2023-06-22T03:51:07;17.50;15.90;
69224;PMS1003;56333;51.306;17.056;2023-06-22T03:52:36;17.40;15.60;
69224;PMS1003;56333;51.306;17.056;2023-06-22T03:54:05;17.60;15.50;
69224;PMS1003;56333;51.306;17.056;2023-06-22T03:55:35;17.40;15.80;
69224;PMS1003;56333;51.306;17.056;2023-06-22T03:57:05;17.70;16.00;
69224;PMS1003;56333;51.306;17.056;2023-06-22T03:58:33;18.40;16.60;
69224;PMS1003;56333;51.306;17.056;2023-06-22T04:00:11;17.60;16.00;
69224;PMS1003;56333;51.306;17.056;2023-06-22T04:01:42;18.50;16.80;
69224;PMS1003;56333;51.306;17.056;2023-06-22T04:03:11;18.00;16.40;
69224;PMS1003;56333;51.306;17.056;2023-06-22T04:04:40;18.50;16.60;
69224;PMS1003;56333;51.306;17.056;2023-06-22T04:06:09;18.10;16.50;
69224;PMS1003;56333;51.306;17.056;2023-06-22T04:07:38;18.80;17.00;
69224;PMS1003;56333;51.306;17.056;2023-06-22T04:09:06;18.20;16.50;
69224;PMS1003;56333;51.306;17.056;2023-06-22T04:10:35;18.60;16.80;
69224;PMS1003;56333;51.306;17.056;2023-06-22T04:12:06;18.70;16.90;
69224;PMS1003;56333;51.306;17.056;2023-06-22T04:13:36;18.30;16.60;
69224;PMS1003;56333;51.306;17.056;2023-06-22T04:15:07;17.80;16.20;
69224;PMS1003;56333;51.306;17.056;2023-06-22T04:16:38;18.10;16.50;
69224;PMS1003;56333;51.306;17.056;2023-06-22T04:18:07;18.60;17.00;
69224;PMS1003;56333;51.306;17.056;2023-06-22T04:19:36;17.50;15.60;
69224;PMS1003;56333;51.306;17.056;2023-06-22T04:21:04;17.10;15.60;
69224;PMS1003;56333;51.306;17.056;2023-06-22T04:22:33;18.90;17.10;
69224;PMS1003;56333;51.306;17.056;2023-06-22T04:24:01;19.20;17.40;
69224;PMS1003;56333;51.306;17.056;2023-06-22T04:25:31;18.00;16.20;
69224;PMS1003;56333;51.306;17.056;2023-06-22T04:26:59;18.20;16.40;
69224;PMS1003;56333;51.306;17.056;2023-06-22T04:28:28;19.60;17.80;
69224;PMS1003;56333;51.306;17.056;2023-06-22T04:30:00;18.60;16.70;
69224;PMS1003;56333;51.306;17.056;2023-06-22T04:31:29;19.40;17.70;
69224;PMS1003;56333;51.306;17.056;2023-06-22T04:33:02;18.70;16.90;
69224;PMS1003;56333;51.306;17.056;2023-06-22T04:34:31;18.80;17.10;
69224;PMS1003;56333;51.306;17.056;2023-06-22T04:36:00;19.30;17.60;
69224;PMS1003;56333;51.306;17.056;2023-06-22T04:37:30;19.50;17.70;
69224;PMS1003;56333;51.306;17.056;2023-06-22T04:38:58;19.10;17.30;
69224;PMS1003;56333;51.306;17.056;2023-06-22T04:40:27;18.30;16.50;
69224;PMS1003;56333;51.306;17.056;2023-06-22T04:41:56;18.90;17.10;
69224;PMS1003;56333;51.306;17.056;2023-06-22T04:43:26;20.30;18.40;
69224;PMS1003;56333;51.306;17.056;2023-06-22T04:44:56;18.80;16.90;
69224;PMS1003;56333;51.306;17.056;2023-06-22T04:46:24;18.50;16.70;
69224;PMS1003;56333;51.306;17.056;2023-06-22T04:47:53;17.80;16.20;
69224;PMS1003;56333;51.306;17.056;2023-06-22T04:49:22;18.80;17.00;
69224;PMS1003;56333;51.306;17.056;2023-06-22T04:50:58;18.20;16.60;
69224;PMS1003;56333;51.306;17.056;2023-06-22T04:52:29;19.10;17.20;
69224;PMS1003;56333;51.306;17.056;2023-06-22T04:53:58;18.60;16.70;
69224;PMS1003;56333;51.306;17.056;2023-06-22T04:55:27;19.10;17.40;
69224;PMS1003;56333;51.306;17.056;2023-06-22T04:56:56;18.30;16.60;
69224;PMS1003;56333;51.306;17.056;2023-06-22T04:58:24;19.20;17.40;
69224;PMS1003;56333;51.306;17.056;2023-06-22T04:59:53;18.40;16.70;
69224;PMS1003;56333;51.306;17.056;2023-06-22T05:01:22;19.60;17.70;
69224;PMS1003;56333;51.306;17.056;2023-06-22T05:02:50;18.20;16.50;
69224;PMS1003;56333;51.306;17.056;2023-06-22T05:04:19;18.70;16.80;
69224;PMS1003;56333;51.306;17.056;2023-06-22T05:05:47;19.80;17.80;
69224;PMS1003;56333;51.306;17.056;2023-06-22T05:07:17;19.50;17.70;
69224;PMS1003;56333;51.306;17.056;2023-06-22T05:08:45;18.70;17.00;
69224;PMS1003;56333;51.306;17.056;2023-06-22T05:10:14;18.70;17.00;
69224;PMS1003;56333;51.306;17.056;2023-06-22T05:11:43;20.10;18.10;
69224;PMS1003;56333;51.306;17.056;2023-06-22T05:13:12;19.20;17.50;
69224;PMS1003;56333;51.306;17.056;2023-06-22T05:14:41;20.30;18.30;
69224;PMS1003;56333;51.306;17.056;2023-06-22T05:16:10;19.60;17.60;
69224;PMS1003;56333;51.306;17.056;2023-06-22T05:17:39;19.50;17.60;
69224;PMS1003;56333;51.306;17.056;2023-06-22T05:19:09;20.30;18.30;
69224;PMS1003;56333;51.306;17.056;2023-06-22T05:20:38;18.80;17.10;
69224;PMS1003;56333;51.306;17.056;2023-06-22T05:22:07;19.40;17.50;
69224;PMS1003;56333;51.306;17.056;2023-06-22T05:23:37;16.70;15.10;
69224;PMS1003;56333;51.306;17.056;2023-06-22T05:25:10;17.60;15.90;
69224;PMS1003;56333;51.306;17.056;2023-06-22T05:26:39;18.10;16.40;
69224;PMS1003;56333;51.306;17.056;2023-06-22T05:28:08;18.70;15.90;
69224;PMS1003;56333;51.306;17.056;2023-06-22T05:29:37;17.40;15.70;
69224;PMS1003;56333;51.306;17.056;2023-06-22T05:31:06;17.70;15.80;
69224;PMS1003;56333;51.306;17.056;2023-06-22T05:32:35;18.60;16.90;
69224;PMS1003;56333;51.306;17.056;2023-06-22T05:34:03;19.40;15.60;
69224;PMS1003;56333;51.306;17.056;2023-06-22T05:35:32;16.50;14.90;
69224;PMS1003;56333;51.306;17.056;2023-06-22T05:37:01;16.60;15.10;
69224;PMS1003;56333;51.306;17.056;2023-06-22T05:38:31;17.50;15.90;
69224;PMS1003;56333;51.306;17.056;2023-06-22T05:39:59;17.10;15.50;
69224;PMS1003;56333;51.306;17.056;2023-06-22T05:41:29;15.90;14.40;
69224;PMS1003;56333;51.306;17.056;2023-06-22T05:42:57;16.40;14.80;
69224;PMS1003;56333;51.306;17.056;2023-06-22T05:44:27;16.40;14.80;
69224;PMS1003;56333;51.306;17.056;2023-06-22T05:45:56;16.40;14.50;
69224;PMS1003;56333;51.306;17.056;2023-06-22T05:47:25;15.40;13.90;
69224;PMS1003;56333;51.306;17.056;2023-06-22T05:48:54;15.10;13.70;
69224;PMS1003;56333;51.306;17.056;2023-06-22T05:50:23;16.00;14.50;
69224;PMS1003;56333;51.306;17.056;2023-06-22T05:51:52;15.20;13.80;
69224;PMS1003;56333;51.306;17.056;2023-06-22T05:53:21;14.80;13.30;
69224;PMS1003;56333;51.306;17.056;2023-06-22T05:54:50;15.30;13.80;
69224;PMS1003;56333;51.306;17.056;2023-06-22T05:56:19;15.60;14.10;
69224;PMS1003;56333;51.306;17.056;2023-06-22T05:57:47;15.00;13.60;
69224;PMS1003;56333;51.306;17.056;2023-06-22T05:59:16;15.50;14.00;
69224;PMS1003;56333;51.306;17.056;2023-06-22T06:00:45;14.40;13.10;
69224;PMS1003;56333;51.306;17.056;2023-06-22T06:02:14;15.30;13.90;
69224;PMS1003;56333;51.306;17.056;2023-06-22T06:03:43;15.50;14.00;
69224;PMS1003;56333;51.306;17.056;2023-06-22T06:05:12;15.20;13.70;
69224;PMS1003;56333;51.306;17.056;2023-06-22T06:06:41;14.90;13.60;
69224;PMS1003;56333;51.306;17.056;2023-06-22T06:08:10;15.00;13.60;
69224;PMS1003;56333;51.306;17.056;2023-06-22T06:09:39;15.20;13.90;
69224;PMS1003;56333;51.306;17.056;2023-06-22T06:11:08;14.40;13.10;
69224;PMS1003;56333;51.306;17.056;2023-06-22T06:12:37;15.40;13.80;
69224;PMS1003;56333;51.306;17.056;2023-06-22T06:14:06;14.70;13.30;
69224;PMS1003;56333;51.306;17.056;2023-06-22T06:15:35;13.70;12.50;
69224;PMS1003;56333;51.306;17.056;2023-06-22T06:17:04;14.90;13.40;
69224;PMS1003;56333;51.306;17.056;2023-06-22T06:18:33;16.50;15.00;
69224;PMS1003;56333;51.306;17.056;2023-06-22T06:20:04;16.40;14.80;
69224;PMS1003;56333;51.306;17.056;2023-06-22T06:21:34;16.00;14.40;
69224;PMS1003;56333;51.306;17.056;2023-06-22T06:23:03;17.50;14.60;
69224;PMS1003;56333;51.306;17.056;2023-06-22T06:24:32;15.20;13.70;
69224;PMS1003;56333;51.306;17.056;2023-06-22T06:26:00;16.20;14.60;
69224;PMS1003;56333;51.306;17.056;2023-06-22T06:27:32;16.40;14.90;
69224;PMS1003;56333;51.306;17.056;2023-06-22T06:29:02;16.30;14.80;
69224;PMS1003;56333;51.306;17.056;2023-06-22T06:30:31;16.90;15.40;
69224;PMS1003;56333;51.306;17.056;2023-06-22T06:32:00;15.20;13.70;
69224;PMS1003;56333;51.306;17.056;2023-06-22T06:33:29;15.70;14.20;
69224;PMS1003;56333;51.306;17.056;2023-06-22T06:34:58;15.70;14.20;
69224;PMS1003;56333;51.306;17.056;2023-06-22T06:36:27;14.60;13.00;
69224;PMS1003;56333;51.306;17.056;2023-06-22T06:37:56;15.80;14.50;
69224;PMS1003;56333;51.306;17.056;2023-06-22T06:39:24;15.10;13.80;
69224;PMS1003;56333;51.306;17.056;2023-06-22T06:40:53;15.50;14.10;
69224;PMS1003;56333;51.306;17.056;2023-06-22T06:42:22;15.40;13.90;
69224;PMS1003;56333;51.306;17.056;2023-06-22T06:43:51;15.70;14.10;
69224;PMS1003;56333;51.306;17.056;2023-06-22T06:45:22;16.40;14.90;
69224;PMS1003;56333;51.306;17.056;2023-06-22T06:46:52;16.10;14.70;
69224;PMS1003;56333;51.306;17.056;2023-06-22T06:48:21;15.70;14.20;
69224;PMS1003;56333;51.306;17.056;2023-06-22T06:49:49;14.20;12.90;
69224;PMS1003;56333;51.306;17.056;2023-06-22T06:51:18;13.50;12.20;
69224;PMS1003;56333;51.306;17.056;2023-06-22T06:52:47;13.20;12.00;
69224;PMS1003;56333;51.306;17.056;2023-06-22T06:54:17;12.90;11.70;
69224;PMS1003;56333;51.306;17.056;2023-06-22T06:55:47;12.30;11.20;
69224;PMS1003;56333;51.306;17.056;2023-06-22T06:57:16;13.80;12.50;
69224;PMS1003;56333;51.306;17.056;2023-06-22T06:58:46;13.70;12.50;
69224;PMS1003;56333;51.306;17.056;2023-06-22T07:00:19;13.10;11.90;
69224;PMS1003;56333;51.306;17.056;2023-06-22T07:01:48;13.80;12.50;
69224;PMS1003;56333;51.306;17.056;2023-06-22T07:03:17;14.10;12.90;
69224;PMS1003;56333;51.306;17.056;2023-06-22T07:04:45;14.80;13.40;
69224;PMS1003;56333;51.306;17.056;2023-06-22T07:06:14;15.60;14.20;
69224;PMS1003;56333;51.306;17.056;2023-06-22T07:07:43;15.60;14.20;
69224;PMS1003;56333;51.306;17.056;2023-06-22T07:09:12;15.70;14.30;
69224;PMS1003;56333;51.306;17.056;2023-06-22T07:10:41;16.20;14.60;
69224;PMS1003;56333;51.306;17.056;2023-06-22T07:12:11;16.70;15.20;
69224;PMS1003;56333;51.306;17.056;2023-06-22T07:13:39;16.80;15.30;
69224;PMS1003;56333;51.306;17.056;2023-06-22T07:15:10;16.90;15.40;
69224;PMS1003;56333;51.306;17.056;2023-06-22T07:16:40;16.50;15.00;
69224;PMS1003;56333;51.306;17.056;2023-06-22T07:18:08;16.90;15.20;
69224;PMS1003;56333;51.306;17.056;2023-06-22T07:19:37;18.50;16.90;
69224;PMS1003;56333;51.306;17.056;2023-06-22T07:21:07;19.30;17.40;
69224;PMS1003;56333;51.306;17.056;2023-06-22T07:22:36;20.50;18.40;
69224;PMS1003;56333;51.306;17.056;2023-06-22T07:24:06;17.90;16.20;
69224;PMS1003;56333;51.306;17.056;2023-06-22T07:25:36;18.50;16.70;
69224;PMS1003;56333;51.306;17.056;2023-06-22T07:27:05;18.40;16.70;
69224;PMS1003;56333;51.306;17.056;2023-06-22T07:28:37;19.20;17.40;
69224;PMS1003;56333;51.306;17.056;2023-06-22T07:30:09;18.70;17.00;
69224;PMS1003;56333;51.306;17.056;2023-06-22T07:31:39;18.90;17.20;
69224;PMS1003;56333;51.306;17.056;2023-06-22T07:33:07;20.10;18.20;
69224;PMS1003;56333;51.306;17.056;2023-06-22T07:34:36;19.20;17.50;
69224;PMS1003;56333;51.306;17.056;2023-06-22T07:36:05;19.40;17.60;
69224;PMS1003;56333;51.306;17.056;2023-06-22T07:37:34;18.40;16.80;
69224;PMS1003;56333;51.306;17.056;2023-06-22T07:39:04;19.90;18.20;
69224;PMS1003;56333;51.306;17.056;2023-06-22T07:40:32;18.80;17.20;
69224;PMS1003;56333;51.306;17.056;2023-06-22T07:42:01;18.70;17.00;
69224;PMS1003;56333;51.306;17.056;2023-06-22T07:43:30;18.50;16.90;
69224;PMS1003;56333;51.306;17.056;2023-06-22T07:45:00;17.10;15.60;
69224;PMS1003;56333;51.306;17.056;2023-06-22T07:46:30;17.30;15.80;
69224;PMS1003;56333;51.306;17.056;2023-06-22T07:47:59;16.20;14.70;
69224;PMS1003;56333;51.306;17.056;2023-06-22T07:49:29;17.40;15.80;
69224;PMS1003;56333;51.306;17.056;2023-06-22T07:50:57;17.20;15.60;
69224;PMS1003;56333;51.306;17.056;2023-06-22T07:52:26;17.30;15.80;
69224;PMS1003;56333;51.306;17.056;2023-06-22T07:53:55;17.40;15.80;
69224;PMS1003;56333;51.306;17.056;2023-06-22T07:55:23;17.80;16.10;
69224;PMS1003;56333;51.306;17.056;2023-06-22T07:56:53;17.90;16.10;
69224;PMS1003;56333;51.306;17.056;2023-06-22T07:58:22;17.60;16.00;
69224;PMS1003;56333;51.306;17.056;2023-06-22T07:59:51;18.20;16.60;
69224;PMS1003;56333;51.306;17.056;2023-06-22T08:01:19;17.70;16.10;
69224;PMS1003;56333;51.306;17.056;2023-06-22T08:02:48;17.80;16.20;
69224;PMS1003;56333;51.306;17.056;2023-06-22T08:04:17;17.90;16.30;
69224;PMS1003;56333;51.306;17.056;2023-06-22T08:05:46;17.70;16.10;
69224;PMS1003;56333;51.306;17.056;2023-06-22T08:07:15;18.90;17.10;
69224;PMS1003;56333;51.306;17.056;2023-06-22T08:08:45;17.30;15.70;
69224;PMS1003;56333;51.306;17.056;2023-06-22T08:10:15;16.60;14.90;
69224;PMS1003;56333;51.306;17.056;2023-06-22T08:11:44;16.40;14.90;
69224;PMS1003;56333;51.306;17.056;2023-06-22T08:13:13;16.20;14.70;
69224;PMS1003;56333;51.306;17.056;2023-06-22T08:14:44;15.90;14.20;
69224;PMS1003;56333;51.306;17.056;2023-06-22T08:16:13;16.70;15.20;
69224;PMS1003;56333;51.306;17.056;2023-06-22T08:17:43;16.00;14.30;
69224;PMS1003;56333;51.306;17.056;2023-06-22T08:19:11;14.40;13.00;
69224;PMS1003;56333;51.306;17.056;2023-06-22T08:20:40;14.10;12.60;
69224;PMS1003;56333;51.306;17.056;2023-06-22T08:22:09;14.60;13.20;
69224;PMS1003;56333;51.306;17.056;2023-06-22T08:23:38;13.60;12.30;
69224;PMS1003;56333;51.306;17.056;2023-06-22T08:25:09;14.30;12.70;
69224;PMS1003;56333;51.306;17.056;2023-06-22T08:26:39;14.20;12.90;
69224;PMS1003;56333;51.306;17.056;2023-06-22T08:28:08;13.00;11.80;
69224;PMS1003;56333;51.306;17.056;2023-06-22T08:29:36;13.30;12.00;
69224;PMS1003;56333;51.306;17.056;2023-06-22T08:31:05;13.80;12.50;
69224;PMS1003;56333;51.306;17.056;2023-06-22T08:32:33;13.60;12.30;
69224;PMS1003;56333;51.306;17.056;2023-06-22T08:34:02;13.40;12.10;
69224;PMS1003;56333;51.306;17.056;2023-06-22T08:35:31;13.50;12.40;
69224;PMS1003;56333;51.306;17.056;2023-06-22T08:37:01;13.60;12.40;
69224;PMS1003;56333;51.306;17.056;2023-06-22T08:38:32;13.80;12.60;
69224;PMS1003;56333;51.306;17.056;2023-06-22T08:40:03;13.40;12.10;
69224;PMS1003;56333;51.306;17.056;2023-06-22T08:41:33;12.90;11.60;
69224;PMS1003;56333;51.306;17.056;2023-06-22T08:43:02;13.70;12.40;
69224;PMS1003;56333;51.306;17.056;2023-06-22T08:44:31;12.10;11.00;
69224;PMS1003;56333;51.306;17.056;2023-06-22T08:46:00;11.60;10.50;
69224;PMS1003;56333;51.306;17.056;2023-06-22T08:47:30;11.80;10.70;
69224;PMS1003;56333;51.306;17.056;2023-06-22T08:48:59;11.90;10.70;
69224;PMS1003;56333;51.306;17.056;2023-06-22T08:50:28;12.20;11.10;
69224;PMS1003;56333;51.306;17.056;2023-06-22T08:51:56;11.70;10.50;
69224;PMS1003;56333;51.306;17.056;2023-06-22T08:53:25;11.40;10.40;
69224;PMS1003;56333;51.306;17.056;2023-06-22T08:54:54;11.20;10.10;
69224;PMS1003;56333;51.306;17.056;2023-06-22T08:56:24;11.00;10.00;
69224;PMS1003;56333;51.306;17.056;2023-06-22T08:57:52;10.70;9.70;